Silver Fork, California
Current Conditions -  °F | °C
As of 4:53 AM on Tuesday 21 Oct 2014 (Local Time) from KTVL Reporting Station
Clear Clear  
Wind Chill: 34°   Ceiling: Unl
Heat Index: 38°   Visibility: 10mi
Dew Point: 21°   Wind: 5mph
Humidity: 51%   Direction: NA
Pressure: 30.08"   Gusts: NA
Location:  38.7639°N, 120.248°W
Report Text: KTVL 211153Z AUTO VRB04KT 10SM CLR 03/M06 A3008 RMK AO2 SLP155 60000 70004 T00331061 10056 20022 58001
Loading
Personal Weather Stations






























Interactive Weather Map
Tropical Storm Tracking
New forecast layout! Learn more

10-Day Weather Forecast

Advertisements
Track Severe Weather on mobile